Time;durP1;ratioP1;P1;durP2;ratioP2;P2;SDS_P1;SDS_P2;PMS_P1;PMS_P2;Temp;Humidity;BMP_temperature;BMP_pressure;BME280_temperature;BME280_humidity;BME280_pressure;Samples;Min_cycle;Max_cycle;Signal;HPM_P1;HPM_P2
2022/07/09 00:02:07;;;;;;;19.40;14.83;;;;;;;20.69;100.00;100339.67;1771600;81;21070;-86
2022/07/09 00:04:35;;;;;;;20.85;14.85;;;;;;;20.72;100.00;100339.27;1772182;81;21579;-88
2022/07/09 00:07:02;;;;;;;23.10;15.45;;;;;;;20.75;100.00;100338.94;1771922;81;21146;-86
2022/07/09 00:09:29;;;;;;;22.22;14.93;;;;;;;20.76;100.00;100339.75;1772081;80;21053;-87
2022/07/09 00:11:57;;;;;;;24.37;14.20;;;;;;;20.69;100.00;100343.64;1772061;81;21539;-89
2022/07/09 00:14:32;;;;;;;20.75;15.05;;;;;;;20.64;100.00;100342.05;1772153;80;21062;-86
2022/07/09 00:16:59;;;;;;;21.40;15.53;;;;;;;20.58;100.00;100340.16;1771608;80;21077;-88
2022/07/09 00:19:26;;;;;;;19.45;15.15;;;;;;;20.54;100.00;100346.84;1771688;80;21136;-86
2022/07/09 00:21:53;;;;;;;20.05;14.95;;;;;;;20.50;100.00;100349.05;1771904;81;21061;-87
2022/07/09 00:24:20;;;;;;;19.92;15.43;;;;;;;20.46;100.00;100350.41;1772522;80;21034;-86
2022/07/09 00:26:47;;;;;;;23.07;14.85;;;;;;;20.44;100.00;100347.96;1772754;81;21564;-89
2022/07/09 00:29:59;;;;;;;23.50;14.90;;;;;;;20.40;100.00;100344.03;1772462;80;21539;-86
2022/07/09 00:32:27;;;;;;;21.10;14.07;;;;;;;20.38;100.00;100339.95;1772480;81;26041;-87
2022/07/09 00:34:57;;;;;;;19.67;13.45;;;;;;;20.23;100.00;100343.97;1772166;81;21090;-87
2022/07/09 00:37:25;;;;;;;22.13;13.88;;;;;;;20.13;100.00;100345.08;1771858;79;21567;-88
2022/07/09 00:39:55;;;;;;;20.50;13.53;;;;;;;20.11;100.00;100349.72;1772167;81;21030;-88
2022/07/09 00:42:24;;;;;;;16.27;12.28;;;;;;;20.10;100.00;100345.43;1772160;81;21021;-88
2022/07/09 00:44:52;;;;;;;19.75;13.05;;;;;;;20.06;100.00;100345.50;1772082;81;22211;-86
2022/07/09 00:47:19;;;;;;;21.35;13.78;;;;;;;19.99;100.00;100341.44;1772209;80;21946;-86
2022/07/09 00:49:48;;;;;;;20.80;13.28;;;;;;;19.94;100.00;100337.70;1772374;80;21034;-88
2022/07/09 00:52:18;;;;;;;18.17;13.08;;;;;;;19.89;100.00;100347.50;1772621;81;21560;-89
2022/07/09 00:54:46;;;;;;;14.53;12.33;;;;;;;19.82;100.00;100348.72;1772020;81;21049;-87
2022/07/09 00:57:13;;;;;;;16.67;12.70;;;;;;;19.76;100.00;100350.75;1772442;81;21136;-87
2022/07/09 00:59:41;;;;;;;15.65;12.25;;;;;;;19.70;100.00;100351.00;1772795;79;21082;-88
2022/07/09 01:02:09;;;;;;;18.15;13.43;;;;;;;19.66;100.00;100350.22;1772508;81;21053;-86
2022/07/09 01:04:39;;;;;;;19.55;13.10;;;;;;;19.57;100.00;100353.95;1772612;81;21038;-87
2022/07/09 01:07:34;;;;;;;23.90;14.33;;;;;;;19.48;100.00;100351.39;1772499;81;21018;-87
2022/07/09 01:10:01;;;;;;;18.45;13.43;;;;;;;19.40;100.00;100351.47;1772415;81;21084;-86
2022/07/09 01:12:28;;;;;;;19.27;12.60;;;;;;;19.30;100.00;100345.62;1772203;81;21015;-87
2022/07/09 01:14:57;;;;;;;20.05;14.33;;;;;;;19.22;100.00;100351.30;1771828;81;21276;-87
2022/07/09 01:17:24;;;;;;;25.27;15.72;;;;;;;19.16;100.00;100354.65;1768585;80;21848;-86
2022/07/09 01:19:51;;;;;;;22.22;15.70;;;;;;;19.08;100.00;100348.13;1763031;81;21018;-87
2022/07/09 01:22:47;;;;;;;18.70;14.20;;;;;;;19.01;100.00;100340.09;1763841;81;21128;-86
2022/07/09 01:25:20;;;;;;;19.50;14.15;;;;;;;18.94;100.00;100342.31;1763445;80;21528;-87
2022/07/09 01:27:47;;;;;;;19.80;13.13;;;;;;;18.89;100.00;100343.61;1763546;81;21095;-86
2022/07/09 01:30:28;;;;;;;16.65;12.63;;;;;;;18.85;100.00;100342.34;1763186;81;21003;-88
2022/07/09 01:32:55;;;;;;;21.48;13.85;;;;;;;18.80;100.00;100339.91;1763047;81;21093;-86
2022/07/09 01:35:23;;;;;;;17.77;12.18;;;;;;;18.74;100.00;100333.51;1763141;81;21129;-88
2022/07/09 01:37:51;;;;;;;19.30;12.53;;;;;;;18.69;100.00;100335.35;1763145;80;21047;-86
2022/07/09 01:40:18;;;;;;;17.40;12.80;;;;;;;18.65;100.00;100345.94;1763321;81;21010;-87
2022/07/09 01:42:47;;;;;;;19.35;13.43;;;;;;;18.60;100.00;100342.51;1762981;81;21547;-86
2022/07/09 01:45:16;;;;;;;18.50;13.05;;;;;;;18.57;100.00;100336.25;1763253;81;21512;-86
2022/07/09 01:47:45;;;;;;;25.40;14.50;;;;;;;18.53;100.00;100333.66;1762951;81;21078;-87
2022/07/09 01:50:12;;;;;;;18.77;14.30;;;;;;;18.51;100.00;100342.74;1763300;80;21050;-90
2022/07/09 01:52:40;;;;;;;19.60;14.60;;;;;;;18.46;100.00;100337.98;1763114;81;21051;-86
2022/07/09 01:55:07;;;;;;;20.60;14.70;;;;;;;18.44;100.00;100339.97;1763337;81;21010;-88
2022/07/09 01:57:35;;;;;;;23.27;15.72;;;;;;;18.43;100.00;100338.33;1763203;81;21078;-86
2022/07/09 02:00:04;;;;;;;21.12;14.65;;;;;;;18.41;100.00;100332.39;1763337;80;21086;-86
2022/07/09 02:02:33;;;;;;;19.27;14.30;;;;;;;18.42;100.00;100343.27;1759172;80;21583;-88
2022/07/09 02:05:00;;;;;;;17.67;14.35;;;;;;;18.45;100.00;100344.25;1764273;81;21105;-86
2022/07/09 02:07:29;;;;;;;19.07;15.08;;;;;;;18.50;100.00;100345.05;1763301;81;21833;-87
2022/07/09 02:09:56;;;;;;;21.68;13.22;;;;;;;18.53;100.00;100348.64;1763835;81;21058;-86
2022/07/09 02:12:23;;;;;;;18.00;14.18;;;;;;;18.51;100.00;100351.45;1762952;80;21120;-86
2022/07/09 02:14:50;;;;;;;21.68;13.05;;;;;;;18.49;100.00;100352.13;1764645;79;21727;-86
2022/07/09 02:17:17;;;;;;;18.67;13.75;;;;;;;18.46;100.00;100352.48;1766480;81;21110;-88
2022/07/09 02:19:45;;;;;;;19.65;12.80;;;;;;;18.44;100.00;100350.52;1771983;81;21146;-90
2022/07/09 02:22:12;;;;;;;21.60;12.63;;;;;;;18.46;100.00;100352.48;1771898;81;21016;-89
2022/07/09 02:24:39;;;;;;;23.98;12.68;;;;;;;18.47;100.00;100356.73;1771984;81;21132;-91
2022/07/09 02:27:06;;;;;;;17.42;12.18;;;;;;;18.42;100.00;100358.61;1771504;80;21040;-91
2022/07/09 02:29:34;;;;;;;19.52;12.20;;;;;;;18.33;100.00;100361.44;1771836;80;21055;-90
2022/07/09 02:32:01;;;;;;;14.23;12.10;;;;;;;18.26;100.00;100358.69;1771594;81;21130;-86
2022/07/09 02:34:28;;;;;;;19.05;12.07;;;;;;;18.24;100.00;100361.47;1770269;81;21599;-90
2022/07/09 02:36:55;;;;;;;21.27;10.82;;;;;;;18.24;100.00;100353.56;1770503;81;21799;-87
2022/07/09 02:39:24;;;;;;;17.98;10.60;;;;;;;18.25;100.00;100352.58;1770119;81;21042;-86
2022/07/09 02:41:52;;;;;;;15.90;9.85;;;;;;;18.29;100.00;100351.73;1770370;81;21038;-86
2022/07/09 02:44:19;;;;;;;16.75;10.40;;;;;;;18.35;100.00;100351.55;1770342;81;21032;-91
2022/07/09 02:46:46;;;;;;;18.52;10.88;;;;;;;18.38;100.00;100350.70;1770805;81;21046;-86
2022/07/09 02:49:14;;;;;;;14.35;9.40;;;;;;;18.40;100.00;100351.84;1770294;80;21230;-87
2022/07/09 02:51:42;;;;;;;23.07;10.58;;;;;;;18.37;100.00;100353.52;1770054;80;21046;-86
2022/07/09 02:54:11;;;;;;;16.37;11.57;;;;;;;18.40;100.00;100345.25;1770057;81;21562;-88
2022/07/09 02:56:38;;;;;;;16.37;11.03;;;;;;;18.45;100.00;100356.92;1769940;81;21070;-87
2022/07/09 02:59:05;;;;;;;17.32;11.43;;;;;;;18.51;100.00;100358.05;1770148;80;21523;-88
2022/07/09 03:01:33;;;;;;;16.82;11.75;;;;;;;18.58;100.00;100356.87;1769797;81;21197;-87
2022/07/09 03:04:00;;;;;;;15.55;11.55;;;;;;;18.67;100.00;100356.30;1769492;81;22144;-87
2022/07/09 03:06:30;;;;;;;16.85;11.15;;;;;;;18.74;100.00;100356.77;1769961;81;21012;-86
2022/07/09 03:08:57;;;;;;;13.15;9.98;;;;;;;18.81;100.00;100355.55;1770157;81;21002;-86
2022/07/09 03:11:24;;;;;;;22.65;10.13;;;;;;;18.89;100.00;100366.03;1770309;81;21125;-89
2022/07/09 03:13:52;;;;;;;16.25;10.50;;;;;;;18.98;100.00;100380.52;1770474;81;21782;-87
2022/07/09 03:16:19;;;;;;;23.00;10.53;;;;;;;19.00;100.00;100391.21;1770197;81;21061;-87
2022/07/09 03:18:46;;;;;;;17.50;10.00;;;;;;;18.99;100.00;100390.08;1764864;80;21552;-86
2022/07/09 03:21:14;;;;;;;12.85;9.20;;;;;;;18.98;100.00;100381.36;1762516;81;21038;-86
2022/07/09 03:23:41;;;;;;;16.75;9.45;;;;;;;19.02;100.00;100377.86;1762845;81;21014;-86
2022/07/09 03:26:09;;;;;;;14.43;9.03;;;;;;;19.05;100.00;100388.05;1763123;80;21218;-88
2022/07/09 03:28:37;;;;;;;14.00;8.75;;;;;;;19.11;100.00;100384.69;1762989;81;21881;-86
2022/07/09 03:31:05;;;;;;;16.80;9.55;;;;;;;19.17;100.00;100379.21;1762837;81;21086;-86
2022/07/09 03:33:32;;;;;;;17.82;9.53;;;;;;;19.23;100.00;100381.97;1763028;81;21031;-86
2022/07/09 03:35:59;;;;;;;10.93;8.68;;;;;;;19.31;100.00;100388.98;1762982;81;21082;-86
2022/07/09 03:38:27;;;;;;;17.50;9.48;;;;;;;19.38;100.00;100389.94;1762972;81;22195;-88
2022/07/09 03:40:54;;;;;;;12.78;8.80;;;;;;;19.49;100.00;100382.56;1762238;80;21023;-86
2022/07/09 03:43:21;;;;;;;19.02;8.63;;;;;;;19.59;100.00;100387.61;1774359;78;21547;-86
2022/07/09 03:45:48;;;;;;;15.53;9.90;;;;;;;19.70;100.00;100384.50;1774868;79;21079;-87
2022/07/09 03:48:15;;;;;;;17.30;10.05;;;;;;;19.80;100.00;100380.27;1766597;80;21100;-86
2022/07/09 03:50:43;;;;;;;17.05;10.55;;;;;;;19.90;100.00;100381.36;1764799;81;21143;-86
2022/07/09 03:53:10;;;;;;;14.73;10.20;;;;;;;20.01;100.00;100391.45;1764876;81;21494;-86
2022/07/09 03:55:37;;;;;;;16.20;10.85;;;;;;;20.11;100.00;100392.52;1764581;81;21048;-86
2022/07/09 03:58:04;;;;;;;17.00;12.03;;;;;;;20.18;100.00;100386.81;1764624;81;21043;-86
2022/07/09 04:00:31;;;;;;;21.15;11.25;;;;;;;20.26;100.00;100392.48;1764481;81;21055;-86
2022/07/09 04:02:58;;;;;;;19.23;12.07;;;;;;;20.36;100.00;100391.70;1764912;81;21151;-87
2022/07/09 04:05:26;;;;;;;19.73;12.18;;;;;;;20.49;100.00;100392.36;1764830;81;21880;-86
2022/07/09 04:07:53;;;;;;;20.15;12.60;;;;;;;20.63;100.00;100392.81;1765383;81;21095;-87
2022/07/09 04:10:21;;;;;;;24.00;13.95;;;;;;;20.77;100.00;100387.20;1764671;81;21024;-87
2022/07/09 04:12:48;;;;;;;20.68;15.38;;;;;;;20.90;100.00;100377.73;1764891;81;21004;-90
2022/07/09 04:15:15;;;;;;;23.80;16.10;;;;;;;21.03;100.00;100373.08;1764573;81;21246;-89
2022/07/09 04:17:42;;;;;;;22.52;15.88;;;;;;;21.12;100.00;100372.73;1765485;81;21039;-88
2022/07/09 04:20:11;;;;;;;21.48;16.20;;;;;;;21.24;100.00;100367.75;1774038;79;21110;-89
2022/07/09 04:22:39;;;;;;;23.60;16.77;;;;;;;21.37;100.00;100365.70;1786156;79;21050;-86
2022/07/09 04:25:08;;;;;;;25.52;17.35;;;;;;;21.50;100.00;100365.50;1771598;79;21969;-87
2022/07/09 04:27:38;;;;;;;26.42;18.67;;;;;;;21.58;100.00;100365.38;1771823;79;21866;-87
2022/07/09 04:30:08;;;;;;;24.07;16.35;;;;;;;21.67;100.00;100364.71;1768115;79;21017;-86
2022/07/09 04:32:36;;;;;;;;;;;;;;;21.77;100.00;100360.38;1774521;81;21551;-86
2022/07/09 04:35:04;;;;;;;24.02;15.60;;;;;;;21.89;100.00;100365.45;1789505;79;20135;-86
2022/07/09 04:37:31;;;;;;;25.45;15.50;;;;;;;22.01;100.00;100361.22;1791906;79;21564;-87
2022/07/09 04:39:59;;;;;;;23.80;14.83;;;;;;;22.11;100.00;100365.34;1771030;79;21163;-86
2022/07/09 04:42:26;;;;;;;21.95;15.63;;;;;;;22.23;100.00;100367.75;1791679;79;21022;-86
2022/07/09 04:44:53;;;;;;;18.60;13.85;;;;;;;22.34;100.00;100372.46;1806837;79;21030;-86
2022/07/09 04:47:20;;;;;;;23.30;13.93;;;;;;;22.47;100.00;100372.23;1785685;79;20999;-85
2022/07/09 04:49:47;;;;;;;17.40;14.33;;;;;;;22.58;100.00;100374.30;1775352;79;21816;-86
2022/07/09 04:52:19;;;;;;;22.13;14.05;;;;;;;22.71;100.00;100366.06;1781632;79;21120;-86
2022/07/09 04:54:44;;;;;;;21.27;15.30;;;;;;;22.80;100.00;100360.84;1781037;79;20975;-87
2022/07/09 04:57:11;;;;;;;26.80;14.98;;;;;;;22.94;100.00;100360.36;1778756;79;21502;-86
2022/07/09 04:59:38;;;;;;;21.62;14.75;;;;;;;23.05;100.00;100373.03;1771895;81;20987;-85
2022/07/09 05:02:05;;;;;;;18.00;13.68;;;;;;;23.13;100.00;100371.51;1780366;79;21042;-86
2022/07/09 05:04:32;;;;;;;21.48;14.47;;;;;;;23.20;100.00;100362.22;1781512;79;21985;-87
2022/07/09 05:07:01;;;;;;;22.60;14.90;;;;;;;23.33;100.00;100361.92;1780166;79;20994;-86
2022/07/09 05:09:29;;;;;;;18.50;13.80;;;;;;;23.46;100.00;100360.56;1781650;79;21049;-86
2022/07/09 05:11:56;;;;;;;21.45;13.98;;;;;;;23.57;100.00;100363.93;1724110;82;21631;-85
2022/07/09 05:14:23;;;;;;;20.82;13.53;;;;;;;23.67;100.00;100357.38;1733414;81;21078;-86
2022/07/09 05:16:50;;;;;;;33.25;14.80;;;;;;;23.77;100.00;100370.53;1722857;82;21126;-86
2022/07/09 05:19:18;;;;;;;27.58;15.05;;;;;;;23.90;100.00;100364.36;1754534;80;21006;-88
2022/07/09 05:21:45;;;;;;;19.92;12.65;;;;;;;24.04;100.00;100371.78;1814626;79;21049;-88
2022/07/09 05:24:13;;;;;;;19.02;13.08;;;;;;;24.15;100.00;100376.14;1747659;81;21175;-85
2022/07/09 05:26:40;;;;;;;20.55;13.85;;;;;;;24.23;99.68;100370.09;1778537;80;21575;-86
2022/07/09 05:29:08;;;;;;;16.93;12.63;;;;;;;24.34;100.00;100376.58;1814386;79;21140;-86
2022/07/09 05:31:35;;;;;;;20.02;12.85;;;;;;;24.48;100.00;100375.17;1747405;82;21318;-88
2022/07/09 05:34:04;;;;;;;18.48;12.05;;;;;;;24.56;88.54;100369.06;1778554;80;21077;-86
2022/07/09 05:36:32;;;;;;;21.00;13.53;;;;;;;24.69;94.45;100366.06;1810543;78;21921;-87
2022/07/09 05:39:00;;;;;;;18.98;12.45;;;;;;;24.81;90.34;100364.33;1802969;79;21034;-83
2022/07/09 05:41:28;;;;;;;21.55;13.20;;;;;;;24.91;90.60;100360.38;1784628;78;21196;-84
2022/07/09 05:43:55;;;;;;;26.95;12.82;;;;;;;24.99;89.62;100360.11;1782463;80;21609;-87
2022/07/09 05:46:22;;;;;;;22.75;13.15;;;;;;;25.12;89.24;100353.86;1782113;80;21042;-84
2022/07/09 05:48:50;;;;;;;18.27;12.13;;;;;;;25.28;85.35;100349.84;1782318;80;21009;-85
2022/07/09 05:51:17;;;;;;;19.17;11.28;;;;;;;25.42;83.06;100343.87;1782508;80;21029;-87
2022/07/09 05:53:45;;;;;;;14.68;11.00;;;;;;;25.52;73.48;100346.84;1782445;80;21143;-85
2022/07/09 05:56:12;;;;;;;16.27;10.03;;;;;;;25.62;73.21;100339.66;1782597;80;21034;-88
2022/07/09 05:58:39;;;;;;;19.95;10.70;;;;;;;25.74;69.83;100335.73;1782441;80;21626;-85
2022/07/09 06:01:07;;;;;;;26.33;10.88;;;;;;;25.86;66.89;100327.80;1782742;80;21034;-86
2022/07/09 06:03:35;;;;;;;17.10;10.18;;;;;;;25.99;67.68;100329.79;1782222;80;21065;-86
2022/07/09 06:06:02;;;;;;;19.17;10.43;;;;;;;26.11;66.55;100325.87;1782068;80;21131;-87
2022/07/09 06:08:31;;;;;;;13.13;10.05;;;;;;;26.23;67.03;100321.91;1782286;80;21011;-86
2022/07/09 06:11:00;;;;;;;13.68;10.40;;;;;;;26.36;68.61;100322.25;1781711;79;21034;-86
2022/07/09 06:13:27;;;;;;;16.23;10.48;;;;;;;26.49;66.06;100326.58;1782448;80;20998;-85
2022/07/09 06:15:55;;;;;;;14.10;9.78;;;;;;;26.63;65.13;100331.20;1782076;80;20987;-85
2022/07/09 06:18:22;;;;;;;14.75;9.23;;;;;;;26.76;59.93;100320.33;1782606;79;21302;-87
2022/07/09 06:20:49;;;;;;;17.80;9.75;;;;;;;26.87;59.57;100321.92;1774152;79;21022;-85
2022/07/09 06:23:17;;;;;;;14.93;9.23;;;;;;;27.02;58.85;100320.94;1770667;80;21062;-89
2022/07/09 06:25:44;;;;;;;13.32;8.70;;;;;;;27.16;56.80;100320.16;1764799;80;21081;-86
2022/07/09 06:28:12;;;;;;;10.98;8.43;;;;;;;27.31;53.76;100313.55;1774553;79;21039;-88
2022/07/09 06:30:40;;;;;;;14.43;8.55;;;;;;;27.42;53.15;100311.91;1766331;79;21096;-86
2022/07/09 06:33:07;;;;;;;13.48;7.83;;;;;;;27.52;53.04;100305.48;1764417;81;21474;-86
2022/07/09 06:35:35;;;;;;;16.93;8.48;;;;;;;27.65;51.68;100309.72;1764317;81;21087;-86
2022/07/09 06:38:02;;;;;;;16.40;8.90;;;;;;;27.76;50.66;100305.42;1764429;81;21954;-87
2022/07/09 06:40:30;;;;;;;19.85;8.55;;;;;;;27.88;50.93;100304.84;1764514;81;21115;-87
2022/07/09 06:42:57;;;;;;;14.35;8.88;;;;;;;28.00;49.78;100304.80;1764633;81;21924;-88
2022/07/09 06:45:26;;;;;;;10.15;8.08;;;;;;;28.11;49.57;100301.30;1760263;81;21044;-86
2022/07/09 06:47:53;;;;;;;10.70;7.83;;;;;;;28.24;49.40;100301.53;1764543;81;21043;-86
2022/07/09 06:50:20;;;;;;;11.85;8.40;;;;;;;28.34;47.97;100295.53;1764375;81;21044;-87
2022/07/09 06:52:47;;;;;;;12.70;8.70;;;;;;;28.41;48.37;100290.83;1764978;81;21024;-86
2022/07/09 06:55:15;;;;;;;15.43;8.28;;;;;;;28.49;45.76;100293.62;1764296;81;21078;-86
2022/07/09 06:57:42;;;;;;;12.58;8.35;;;;;;;28.54;46.46;100291.04;1764564;81;21072;-86
2022/07/09 07:00:10;;;;;;;18.80;8.05;;;;;;;28.61;46.81;100293.53;1764498;80;21039;-89
2022/07/09 07:02:37;;;;;;;11.90;7.97;;;;;;;28.70;46.06;100292.66;1764572;80;21600;-87
2022/07/09 07:05:05;;;;;;;14.65;7.70;;;;;;;28.77;47.05;100287.94;1764360;80;20997;-85
2022/07/09 07:07:33;;;;;;;11.15;7.80;;;;;;;28.91;46.08;100294.58;1764454;80;21241;-86
2022/07/09 07:10:01;;;;;;;16.00;8.08;;;;;;;29.07;45.78;100289.43;1764371;80;21016;-86
2022/07/09 07:12:29;;;;;;;11.63;7.33;;;;;;;29.21;46.83;100287.22;1764672;81;21039;-86
2022/07/09 07:14:56;;;;;;;10.08;7.53;;;;;;;29.34;45.31;100288.75;1764204;80;21024;-86
2022/07/09 07:17:24;;;;;;;15.88;7.70;;;;;;;29.46;45.02;100281.93;1764770;81;21044;-85
2022/07/09 07:19:51;;;;;;;12.35;7.20;;;;;;;29.63;45.21;100279.16;1773637;80;21174;-86
2022/07/09 07:22:18;;;;;;;12.23;7.50;;;;;;;29.81;46.90;100273.98;1780012;80;21114;-87
2022/07/09 07:24:46;;;;;;;11.15;7.25;;;;;;;30.03;44.81;100274.81;1779746;80;21079;-86
2022/07/09 07:27:14;;;;;;;11.20;7.55;;;;;;;30.25;47.01;100275.78;1779243;80;21082;-86
2022/07/09 07:29:41;;;;;;;14.80;7.20;;;;;;;30.41;45.25;100272.16;1780111;80;21043;-86
2022/07/09 07:32:09;;;;;;;15.20;7.50;;;;;;;30.58;44.32;100275.27;1780013;80;21137;-87
2022/07/09 07:34:37;;;;;;;12.53;7.22;;;;;;;30.74;43.49;100272.17;1780114;80;21663;-86
2022/07/09 07:37:04;;;;;;;11.93;7.70;;;;;;;30.93;43.86;100267.98;1779909;80;21050;-85
2022/07/09 07:39:32;;;;;;;11.80;6.80;;;;;;;31.05;40.43;100258.91;1780004;80;21003;-85
2022/07/09 07:41:59;;;;;;;12.88;6.78;;;;;;;31.15;39.09;100257.66;1780456;80;21675;-86
2022/07/09 07:44:26;;;;;;;13.28;7.10;;;;;;;31.28;38.04;100259.06;1779531;80;21132;-86
2022/07/09 07:46:53;;;;;;;14.73;7.08;;;;;;;31.37;37.49;100253.97;1779736;80;21024;-86
2022/07/09 07:49:20;;;;;;;13.18;6.55;;;;;;;31.43;37.61;100253.73;1780082;80;21034;-85
2022/07/09 07:51:47;;;;;;;11.28;6.50;;;;;;;31.50;35.90;100245.95;1779733;80;21509;-86
2022/07/09 07:54:14;;;;;;;8.70;6.03;;;;;;;31.59;35.47;100249.74;1780431;80;21051;-89
2022/07/09 07:56:41;;;;;;;15.35;7.47;;;;;;;31.64;33.90;100245.71;1779938;80;21136;-86
2022/07/09 07:59:09;;;;;;;10.95;7.50;;;;;;;31.68;33.63;100248.70;1788858;79;21066;-89
2022/07/09 08:01:36;;;;;;;14.78;7.42;;;;;;;31.71;34.55;100245.50;1812140;79;21057;-86
2022/07/09 08:04:04;;;;;;;12.82;6.47;;;;;;;31.75;36.13;100247.91;1811896;79;21053;-85
2022/07/09 08:06:31;;;;;;;7.10;6.00;;;;;;;31.78;33.82;100239.31;1811962;78;21089;-86
2022/07/09 08:08:58;;;;;;;12.55;5.90;;;;;;;31.76;33.65;100235.55;1811664;79;22135;-86
2022/07/09 08:11:26;;;;;;;10.10;5.72;;;;;;;31.78;33.38;100234.73;1811748;79;21034;-86
2022/07/09 08:13:53;;;;;;;6.28;5.37;;;;;;;31.78;33.38;100234.73;1811914;79;21018;-86
2022/07/09 08:16:21;;;;;;;11.22;6.12;;;;;;;31.83;32.88;100231.79;1811844;79;21014;-86
2022/07/09 08:18:48;;;;;;;8.38;5.37;;;;;;;31.87;32.30;100231.52;1811920;78;22088;-89
2022/07/09 08:21:16;;;;;;;8.65;6.22;;;;;;;31.92;31.54;100225.60;1812102;78;21127;-86
2022/07/09 08:23:53;;;;;;;9.70;5.90;;;;;;;32.03;33.18;100226.97;1811943;78;21041;-89
2022/07/09 08:26:22;;;;;;;9.03;5.50;;;;;;;32.22;32.26;100223.22;1812086;79;22105;-86
2022/07/09 08:28:49;;;;;;;14.43;6.08;;;;;;;32.39;31.49;100221.06;1812267;79;21003;-87
2022/07/09 08:31:17;;;;;;;12.15;5.87;;;;;;;32.47;30.93;100219.69;1782413;79;21029;-89
2022/07/09 08:33:44;;;;;;;10.90;5.80;;;;;;;32.45;32.03;100219.70;1772123;80;21092;-86
2022/07/09 08:36:12;;;;;;;9.35;6.40;;;;;;;32.38;30.80;100223.48;1771481;79;21501;-88
2022/07/09 08:38:39;;;;;;;8.35;5.45;;;;;;;32.36;31.10;100216.20;1771856;79;21655;-87
2022/07/09 08:41:07;;;;;;;10.05;6.22;;;;;;;32.43;31.70;100213.23;1771641;79;21007;-86
2022/07/09 08:43:37;;;;;;;6.95;5.62;;;;;;;32.45;31.45;100217.00;1771865;79;21682;-86
2022/07/09 08:46:06;;;;;;;11.38;5.90;;;;;;;32.41;31.24;100211.34;1771904;79;21132;-86
2022/07/09 08:48:37;;;;;;;10.32;5.97;;;;;;;32.35;31.22;100209.75;1771187;80;21035;-85
2022/07/09 08:51:06;;;;;;;8.40;4.97;;;;;;;32.28;32.43;100210.56;1772144;79;20998;-89
2022/07/09 08:53:38;;;;;;;7.67;4.75;;;;;;;32.21;33.43;100207.55;1771809;81;21516;-86
2022/07/09 08:56:06;;;;;;;6.25;4.37;;;;;;;32.24;33.37;100200.88;1769845;81;21073;-89
2022/07/09 08:58:34;;;;;;;9.83;4.65;;;;;;;32.47;31.86;100200.03;1772146;79;21750;-89
2022/07/09 09:01:02;;;;;;;10.82;4.65;;;;;;;32.47;31.86;100200.03;1771761;81;20995;-86
2022/07/09 09:03:29;;;;;;;9.55;5.00;;;;;;;32.70;32.43;100199.44;1771761;79;21015;-86
2022/07/09 09:06:08;;;;;;;7.17;4.80;;;;;;;33.01;33.90;100191.82;1772034;79;21026;-88
2022/07/09 09:08:42;;;;;;;6.28;5.05;;;;;;;33.30;33.33;100187.08;1771781;79;21097;-88
2022/07/09 09:11:23;;;;;;;6.83;4.78;;;;;;;33.45;32.41;100180.83;1772237;79;21145;-89
2022/07/09 09:13:53;;;;;;;11.90;5.53;;;;;;;33.62;34.00;100178.53;1780585;79;21113;-88
2022/07/09 09:16:22;;;;;;;11.83;4.60;;;;;;;33.77;31.02;100184.92;1780299;79;21516;-92
2022/07/09 09:18:52;;;;;;;5.67;5.08;;;;;;;33.81;31.07;100170.55;1772220;81;21026;-89
2022/07/09 09:21:23;;;;;;;11.57;5.33;;;;;;;33.83;31.58;100178.39;1787579;79;21022;-89
2022/07/09 09:24:09;;;;;;;14.83;5.33;;;;;;;33.88;29.89;100181.07;1784546;79;21139;-88
2022/07/09 09:26:36;;;;;;;8.58;4.92;;;;;;;33.85;29.70;100184.88;1788617;80;21566;-90
2022/07/09 09:29:04;;;;;;;8.40;5.03;;;;;;;33.74;28.92;100176.03;1788895;79;21022;-89
2022/07/09 09:31:36;;;;;;;11.03;4.17;;;;;;;33.68;29.55;100172.56;1788476;79;21034;-88
2022/07/09 09:34:18;;;;;;;12.50;4.60;;;;;;;33.70;30.16;100177.66;1789050;79;21554;-89
2022/07/09 09:36:57;;;;;;;9.45;4.60;;;;;;;33.77;30.84;100177.62;1765331;80;21156;-88
2022/07/09 09:39:24;;;;;;;13.70;4.00;;;;;;;33.84;30.15;100166.52;1764262;80;21047;-94
2022/07/09 09:42:01;;;;;;;9.35;4.55;;;;;;;33.87;29.94;100175.41;1769017;80;21048;-89
2022/07/09 09:44:39;;;;;;;4.70;3.87;;;;;;;33.76;30.33;100166.56;1774296;80;21023;-88
2022/07/09 09:47:13;;;;;;;8.73;3.67;;;;;;;33.63;29.77;100167.20;1766311;79;21560;-89
2022/07/09 09:57:13;;;;;;;6.22;3.40;;;;;;;34.36;29.24;100161.47;1765132;79;21000;-89
2022/07/09 09:59:42;;;;;;;8.20;4.20;;;;;;;34.53;30.90;100154.27;1783291;79;21552;-90
2022/07/09 10:02:11;;;;;;;13.28;3.77;;;;;;;34.58;29.43;100158.26;1781291;80;21097;-89
2022/07/09 10:05:15;;;;;;;11.15;4.00;;;;;;;34.52;28.29;100156.72;1789085;80;21258;-89
2022/07/09 10:07:50;;;;;;;9.73;3.83;;;;;;;34.28;29.12;100150.73;1788577;80;21630;-90
2022/07/09 10:11:01;;;;;;;9.80;4.33;;;;;;;34.19;29.95;100150.30;1788106;79;21061;-90
2022/07/09 10:17:26;;;;;;;6.80;4.10;;;;;;;34.22;29.70;100150.52;1757457;81;21053;-91
2022/07/09 10:20:32;;;;;;;6.65;3.40;;;;;;;34.38;29.51;100151.19;1755881;80;22195;-89
2022/07/09 10:22:59;;;;;;;8.40;4.00;;;;;;;34.39;30.57;100146.05;1743391;81;21045;-89
2022/07/09 10:25:34;;;;;;;10.30;3.98;;;;;;;34.21;28.66;100145.42;1741899;81;21093;-89
2022/07/09 10:28:03;;;;;;;10.38;4.60;;;;;;;34.10;28.82;100141.45;1739787;82;21117;-90
2022/07/09 10:30:35;;;;;;;13.03;4.30;;;;;;;34.18;28.86;100133.27;1741360;82;21555;-91
2022/07/09 10:33:11;;;;;;;7.50;4.55;;;;;;;34.30;28.93;100134.22;1741323;81;21835;-94
2022/07/09 10:35:48;;;;;;;5.92;3.62;;;;;;;34.39;28.74;100125.78;1741350;82;21477;-90
2022/07/09 10:38:17;;;;;;;11.03;4.00;;;;;;;34.55;30.29;100122.37;1741629;81;21054;-90
2022/07/09 10:40:47;;;;;;;9.58;3.80;;;;;;;34.72;28.16;100119.17;1741643;82;21077;-89
2022/07/09 10:43:46;;;;;;;;;;;;;;;34.83;28.91;100123.11;1744364;81;21675;-91
2022/07/09 10:46:15;;;;;;;7.50;4.15;;;;;;;34.96;28.91;100121.62;1742015;82;21136;-91
2022/07/09 10:48:45;;;;;;;8.73;3.65;;;;;;;35.03;28.12;100117.44;1741278;81;21050;-90
2022/07/09 10:51:22;;;;;;;10.10;4.40;;;;;;;35.10;28.94;100114.91;1741615;82;21070;-92
2022/07/09 10:53:49;;;;;;;7.95;3.72;;;;;;;35.17;27.67;100109.97;1739037;81;21034;-91
2022/07/09 10:56:53;;;;;;;8.60;3.70;;;;;;;35.23;27.89;100106.08;1741363;82;21054;-91
2022/07/09 10:59:21;;;;;;;9.98;4.55;;;;;;;35.29;27.89;100102.75;1741215;82;21828;-93
2022/07/09 11:01:55;;;;;;;12.18;4.28;;;;;;;35.21;27.07;100105.56;1741440;81;21795;-89
2022/07/09 11:04:29;;;;;;;8.23;4.15;;;;;;;35.08;27.37;100105.75;1740810;81;21547;-90
2022/07/09 11:07:35;;;;;;;9.88;3.92;;;;;;;34.97;27.27;100107.00;1741678;82;21073;-90
2022/07/09 11:10:05;;;;;;;13.10;4.20;;;;;;;34.99;28.47;100099.38;1741429;82;21054;-91
2022/07/09 11:12:35;;;;;;;9.30;3.70;;;;;;;35.15;28.30;100093.22;1741468;82;21210;-90
2022/07/09 11:15:10;;;;;;;13.88;4.30;;;;;;;35.31;27.93;100085.66;1728736;82;38545;-89
2022/07/09 11:17:41;;;;;;;7.50;3.47;;;;;;;35.44;27.66;100082.24;1747574;81;21586;-90
2022/07/09 11:20:40;;;;;;;9.10;3.67;;;;;;;35.50;28.23;100082.41;1742274;82;21055;-90
2022/07/09 11:23:14;;;;;;;9.73;4.47;;;;;;;35.57;28.42;100077.97;1767669;80;21021;-91
2022/07/09 11:25:42;;;;;;;9.75;4.05;;;;;;;35.66;27.22;100072.67;1780199;80;21821;-90
2022/07/09 11:28:24;;;;;;;8.45;4.03;;;;;;;35.64;27.77;100070.80;1775934;80;21526;-90
2022/07/09 11:31:05;;;;;;;8.55;4.30;;;;;;;35.60;27.06;100072.52;1779564;80;21026;-90
2022/07/09 11:36:22;;;;;;;6.65;3.80;;;;;;;35.70;27.69;100057.42;1651043;86;21618;-89
2022/07/09 11:38:52;;;;;;;11.63;3.92;;;;;;;35.84;27.88;100062.33;1651817;86;21188;-89